createdAt,value
2018-11-23T06:01:06.918Z,95607.51
2018-11-23T06:06:10.284Z,95598.21
2018-11-23T06:11:14.402Z,95600.55
2018-11-23T06:16:17.739Z,95604.98
2018-11-23T06:21:21.854Z,95607.42
2018-11-23T06:26:26.787Z,95600.25
2018-11-23T06:31:30.134Z,95593.41
2018-11-23T06:36:34.256Z,95608.25
2018-11-23T06:41:38.371Z,95594.87
2018-11-23T06:46:42.208Z,95594.94
2018-11-23T06:51:46.328Z,95596.63
2018-11-23T06:56:49.679Z,95598.67
2018-11-23T07:01:54.566Z,95607.98
2018-11-23T07:06:57.911Z,95618.37
2018-11-23T07:12:01.249Z,95622.03
2018-11-23T07:17:04.583Z,95627.33
2018-11-23T07:22:07.927Z,95626.55
2018-11-23T07:27:11.262Z,95627.38
2018-11-23T07:32:14.608Z,95623.20
2018-11-23T07:37:17.966Z,95625.72
2018-11-23T07:42:21.296Z,95627.70
2018-11-23T07:47:24.622Z,95629.63
2018-11-23T07:52:48.957Z,95633.80
2018-11-23T07:57:52.307Z,95628.57
2018-11-23T08:02:55.640Z,95627.41
2018-11-23T08:07:58.984Z,95621.42
2018-11-23T08:13:02.333Z,95618.31
2018-11-23T08:18:05.677Z,95608.26
2018-11-23T08:23:09.800Z,95600.36
2018-11-23T08:28:13.146Z,95608.45
2018-11-23T08:33:18.508Z,95601.93
2018-11-23T08:38:20.765Z,95607.00
2018-11-23T08:43:24.107Z,95611.60
2018-11-23T08:48:27.448Z,95603.20
2018-11-23T08:53:30.789Z,95608.41
2018-11-23T08:58:34.117Z,95603.44
2018-11-23T09:03:37.479Z,95593.45
2018-11-23T09:08:40.830Z,95589.51
2018-11-23T09:13:44.181Z,95590.40
2018-11-23T09:18:48.294Z,95598.42
2018-11-23T09:23:51.634Z,95618.93
2018-11-23T09:28:54.969Z,95598.50
2018-11-23T09:33:58.314Z,95593.24
2018-11-23T09:39:01.656Z,95581.16
2018-11-23T09:44:05.767Z,95571.13
2018-11-23T09:49:09.118Z,95574.97
2018-11-23T09:54:12.460Z,95578.55
2018-11-23T09:59:15.801Z,95581.73
2018-11-23T10:04:19.165Z,95566.92
2018-11-23T10:09:22.514Z,95558.72
2018-11-23T10:14:25.839Z,95552.14
2018-11-23T10:19:29.193Z,95530.72
2018-11-23T10:24:33.284Z,95524.19
2018-11-23T10:29:36.635Z,95527.52
2018-11-23T10:34:39.975Z,95512.30
2018-11-23T10:39:46.647Z,95494.64
2018-11-23T10:44:50.205Z,95490.02
2018-11-23T10:49:54.028Z,95484.91
2018-11-23T10:54:57.355Z,95488.40
2018-11-23T11:00:00.742Z,95474.68
2018-11-23T11:05:04.184Z,95472.79
2018-11-23T11:10:11.187Z,95468.09
2018-11-23T11:15:14.530Z,95455.84
2018-11-23T11:20:17.885Z,95451.71
2018-11-23T11:25:21.222Z,95452.81
2018-11-23T11:30:24.565Z,95445.12
2018-11-23T11:35:28.664Z,95435.23
2018-11-23T11:40:32.018Z,95438.83
2018-11-23T11:45:35.361Z,95446.42
2018-11-23T11:50:38.704Z,95439.47
2018-11-23T11:55:42.059Z,95422.25
2018-11-23T12:00:45.396Z,95412.57
2018-11-23T12:05:48.720Z,95409.50
2018-11-23T12:10:52.876Z,95400.98
2018-11-23T12:15:56.211Z,95387.62
2018-11-23T12:21:00.322Z,95379.62
2018-11-23T12:26:03.672Z,95371.16
2018-11-23T12:31:07.014Z,95366.14
2018-11-23T12:36:10.354Z,95356.39
2018-11-23T12:41:13.707Z,95346.24
2018-11-23T12:46:17.053Z,95338.89
2018-11-23T12:51:20.412Z,95323.05
2018-11-23T12:56:23.746Z,95302.98
2018-11-23T13:01:27.090Z,95309.92
2018-11-23T13:06:30.429Z,95308.17
2018-11-23T13:11:33.777Z,95302.73
2018-11-23T13:16:37.875Z,95310.91
2018-11-23T13:21:41.212Z,95308.17
2018-11-23T13:26:45.341Z,95311.55
2018-11-23T13:31:48.695Z,95310.99
2018-11-23T13:36:52.060Z,95308.51
2018-11-23T13:41:55.423Z,95310.83
2018-11-23T13:46:58.747Z,95310.56
2018-11-23T13:52:02.094Z,95316.03
2018-11-23T13:57:05.537Z,95307.43
2018-11-23T14:02:08.877Z,95289.94
2018-11-23T14:07:12.220Z,95286.62
2018-11-23T14:12:18.461Z,95275.42
2018-11-23T14:17:24.914Z,95269.39
2018-11-23T14:22:31.296Z,95268.58
2018-11-23T14:27:36.207Z,95262.63
2018-11-23T14:32:41.067Z,95257.33
2018-11-23T14:37:44.424Z,95250.17
2018-11-23T14:42:47.772Z,95250.08
2018-11-23T14:47:51.126Z,95248.17
2018-11-23T14:52:54.462Z,95255.77
2018-11-23T14:57:57.794Z,95250.64
2018-11-23T15:03:01.217Z,95249.89
2018-11-23T15:08:04.565Z,95255.01
2018-11-23T15:13:07.916Z,95238.20
2018-11-23T15:18:12.022Z,95239.94
2018-11-23T15:23:15.376Z,95245.95
2018-11-23T15:28:18.735Z,95245.37
2018-11-23T15:33:22.092Z,95239.18
2018-11-23T15:38:25.433Z,95233.89
2018-11-23T15:43:28.773Z,95228.39
2018-11-23T15:48:32.136Z,95227.78
2018-11-23T15:53:35.493Z,95231.09
2018-11-23T15:58:38.864Z,95220.52
2018-11-23T16:03:42.185Z,95215.98
2018-11-23T16:08:45.550Z,95222.17
2018-11-23T16:13:48.877Z,95208.47
2018-11-23T16:18:52.980Z,95206.48
2018-11-23T16:23:56.339Z,95203.51
2018-11-23T16:28:59.677Z,95197.16
2018-11-23T16:34:03.018Z,95201.30
2018-11-23T16:39:06.373Z,95199.99
2018-11-23T16:44:13.128Z,95200.23
2018-11-23T16:49:16.479Z,95197.25
2018-11-23T16:54:38.167Z,95181.42
2018-11-23T16:59:41.541Z,95168.64
2018-11-23T17:04:45.011Z,95178.59
2018-11-23T17:09:48.598Z,95163.98
2018-11-23T17:14:52.829Z,95148.97
2018-11-23T17:19:55.341Z,95141.13
2018-11-23T17:25:00.612Z,95148.95
2018-11-23T17:30:04.139Z,95139.87
2018-11-23T17:35:08.915Z,95134.11
2018-11-23T17:40:12.651Z,95128.18
2018-11-23T17:45:17.387Z,95120.57
2018-11-23T17:50:21.004Z,95110.17
2018-11-23T17:55:24.580Z,95099.68
2018-11-23T18:00:28.038Z,95098.41
2018-11-23T18:05:31.397Z,95088.25
2018-11-23T18:10:34.739Z,95090.52
2018-11-23T18:15:38.087Z,95093.27
2018-11-23T18:20:41.439Z,95090.38
2018-11-23T18:25:44.796Z,95074.95
2018-11-23T18:30:51.133Z,95062.64
2018-11-23T18:35:54.831Z,95046.91
2018-11-23T18:40:59.363Z,95040.06
2018-11-23T18:46:03.658Z,95029.07
2018-11-23T18:51:10.605Z,94998.97
2018-11-23T18:56:14.221Z,95001.08
2018-11-23T19:01:17.940Z,94999.95
2018-11-23T19:06:26.471Z,95010.39
2018-11-23T19:11:30.064Z,95004.88
2018-11-23T19:16:33.930Z,95004.54
2018-11-23T19:21:37.385Z,94988.67
2018-11-23T19:26:40.834Z,94977.68
2018-11-23T19:31:44.370Z,94957.33
2018-11-23T19:36:47.875Z,94960.08
2018-11-23T19:41:51.246Z,94945.63
2018-11-23T19:46:54.597Z,94970.40
2018-11-23T19:51:57.931Z,94912.33
2018-11-23T19:57:01.297Z,94945.63
2018-11-23T20:02:04.679Z,94919.31
2018-11-23T20:07:08.081Z,94914.55
2018-11-23T20:12:11.543Z,94923.36
2018-11-23T20:17:15.848Z,94919.79
2018-11-23T20:22:20.084Z,94913.19
2018-11-23T20:27:24.220Z,94909.41
2018-11-23T20:32:27.585Z,94904.89
2018-11-23T20:37:30.919Z,94900.64
2018-11-23T20:42:34.256Z,94891.14
2018-11-23T20:47:37.587Z,94883.94
2018-11-23T20:52:40.952Z,94873.55
2018-11-23T20:57:44.301Z,94864.08
2018-11-23T21:02:47.636Z,94860.50
2018-11-23T21:07:51.752Z,94853.30
2018-11-23T21:12:55.093Z,94849.02
2018-11-23T21:17:59.199Z,94840.68
2018-11-23T21:23:04.560Z,94833.81
2018-11-23T21:28:07.907Z,94826.59
2018-11-23T21:33:14.344Z,94829.81
2018-11-23T21:38:17.680Z,94825.00
2018-11-23T21:43:21.041Z,94834.05
2018-11-23T21:48:24.404Z,94827.27
2018-11-23T21:53:27.742Z,94819.63
2018-11-23T21:58:31.095Z,94807.84
2018-11-23T22:03:35.467Z,94800.46
2018-11-23T22:08:38.817Z,94786.05
2018-11-23T22:13:54.695Z,94758.79
2018-11-23T22:18:58.797Z,94764.41
2018-11-23T22:29:43.544Z,94769.28
2018-11-23T22:34:46.884Z,94767.37
2018-11-23T22:39:50.241Z,94763.91
2018-11-23T22:44:53.852Z,94763.39
2018-11-23T22:49:57.299Z,94771.23
2018-11-23T22:55:01.506Z,94763.89
2018-11-23T23:00:04.848Z,94793.49
2018-11-23T23:05:08.950Z,94774.32
2018-11-23T23:10:12.293Z,94768.95
2018-11-23T23:15:16.483Z,94760.13
2018-11-23T23:20:19.822Z,94745.92
2018-11-23T23:25:23.163Z,94747.22
2018-11-23T23:30:26.506Z,94744.88
2018-11-23T23:35:29.848Z,94743.62
2018-11-23T23:40:33.182Z,94736.92
2018-11-23T23:45:36.524Z,94719.86
2018-11-23T23:50:39.869Z,94707.08
2018-11-23T23:55:43.197Z,94688.27
